createdAt,value
2018-06-22T00:01:35.879Z,11.94
2018-06-22T00:04:03.972Z,11.87
2018-06-22T00:06:32.189Z,11.62
2018-06-22T00:09:01.308Z,11.58
2018-06-22T00:11:29.480Z,11.40
2018-06-22T00:13:57.832Z,11.55
2018-06-22T00:16:25.917Z,11.35
2018-06-22T00:18:54.033Z,11.36
2018-06-22T00:21:22.232Z,11.17
2018-06-22T00:23:50.313Z,11.15
2018-06-22T00:26:18.525Z,11.26
2018-06-22T00:28:46.687Z,11.16
2018-06-22T00:31:14.864Z,10.93
2018-06-22T00:33:42.932Z,11.03
2018-06-22T00:36:11.011Z,11.06
2018-06-22T00:38:39.136Z,11.17
2018-06-22T00:41:07.236Z,10.98
2018-06-22T00:43:35.752Z,10.89
2018-06-22T00:46:03.858Z,10.96
2018-06-22T00:48:32.243Z,10.90
2018-06-22T00:51:00.347Z,10.96
2018-06-22T00:53:39.811Z,10.82
2018-06-22T00:56:07.921Z,10.86
2018-06-22T00:58:36.006Z,10.66
2018-06-22T01:01:04.169Z,10.76
2018-06-22T01:03:32.790Z,10.53
2018-06-22T01:06:02.305Z,10.76
2018-06-22T01:08:30.741Z,10.76
2018-06-22T01:10:59.212Z,10.64
2018-06-22T01:13:27.435Z,10.66
2018-06-22T01:15:55.627Z,10.73
2018-06-22T01:18:23.740Z,10.67
2018-06-22T01:20:51.974Z,10.62
2018-06-22T01:23:21.005Z,10.57
2018-06-22T01:25:49.123Z,10.55
2018-06-22T01:28:17.241Z,10.63
2018-06-22T01:30:45.440Z,10.61
2018-06-22T01:33:13.639Z,10.53
2018-06-22T01:35:41.777Z,10.39
2018-06-22T01:38:10.024Z,10.45
2018-06-22T01:40:38.169Z,10.34
2018-06-22T01:43:08.260Z,10.36
2018-06-22T01:45:36.420Z,10.33
2018-06-22T01:48:04.544Z,10.42
2018-06-22T01:50:32.764Z,10.41
2018-06-22T01:53:01.046Z,10.37
2018-06-22T01:55:29.427Z,10.39
2018-06-22T01:57:57.660Z,10.43
2018-06-22T02:00:25.869Z,10.43
2018-06-22T02:02:53.944Z,10.68
2018-06-22T02:05:22.068Z,10.65
2018-06-22T02:07:50.219Z,10.38
2018-06-22T02:10:18.380Z,10.24
2018-06-22T02:12:47.109Z,10.00
2018-06-22T02:15:15.258Z,10.01
2018-06-22T02:17:43.462Z,9.90
2018-06-22T02:20:12.006Z,10.25
2018-06-22T02:22:40.228Z,10.39
2018-06-22T02:25:08.428Z,10.28
2018-06-22T02:27:36.553Z,10.07
2018-06-22T02:30:05.211Z,10.04
2018-06-22T02:32:33.380Z,10.07
2018-06-22T02:35:02.531Z,10.15
2018-06-22T02:37:31.560Z,10.15
2018-06-22T02:40:00.756Z,10.21
2018-06-22T02:42:28.852Z,10.22
2018-06-22T02:44:56.955Z,10.08
2018-06-22T02:47:25.080Z,10.07
2018-06-22T02:49:53.185Z,9.87
2018-06-22T02:52:21.319Z,9.72
2018-06-22T02:54:49.432Z,9.76
2018-06-22T02:57:17.552Z,9.79
2018-06-22T02:59:46.373Z,9.71
2018-06-22T03:02:14.548Z,9.86
2018-06-22T03:04:42.687Z,9.77
2018-06-22T03:07:10.857Z,9.79
2018-06-22T03:09:39.047Z,9.63
2018-06-22T03:12:07.268Z,9.83
2018-06-22T03:14:36.348Z,9.79
2018-06-22T03:17:04.451Z,9.83
2018-06-22T03:19:32.780Z,9.90
2018-06-22T03:22:01.129Z,9.77
2018-06-22T03:24:29.256Z,9.63
2018-06-22T03:26:57.511Z,9.63
2018-06-22T03:29:25.728Z,9.54
2018-06-22T03:31:54.053Z,9.61
2018-06-22T03:34:22.277Z,9.78
2018-06-22T03:36:50.417Z,9.66
2018-06-22T03:39:19.409Z,9.69
2018-06-22T03:41:47.544Z,9.66
2018-06-22T03:44:15.944Z,9.56
2018-06-22T03:46:44.127Z,9.59
2018-06-22T03:49:12.272Z,9.64
2018-06-22T03:54:33.468Z,9.69
2018-06-22T03:57:01.702Z,9.73
2018-06-22T03:59:29.915Z,9.67
2018-06-22T04:01:58.127Z,9.77
2018-06-22T04:04:26.388Z,9.83
2018-06-22T04:06:54.740Z,9.86
2018-06-22T04:09:22.923Z,9.68
2018-06-22T04:11:51.207Z,9.72
2018-06-22T04:14:19.403Z,9.79
2018-06-22T04:16:47.689Z,9.81
2018-06-22T04:19:16.457Z,9.88
2018-06-22T04:21:44.580Z,10.49
2018-06-22T04:24:15.777Z,11.96
2018-06-22T04:26:44.117Z,13.26
2018-06-22T04:29:14.172Z,14.51
2018-06-22T04:31:42.392Z,14.26
2018-06-22T04:34:11.083Z,15.18
2018-06-22T04:36:39.334Z,15.17
2018-06-22T04:39:09.100Z,15.64
2018-06-22T04:41:37.212Z,15.14
2018-06-22T04:44:05.535Z,15.63
2018-06-22T04:46:33.868Z,15.84
2018-06-22T04:49:02.093Z,16.54
2018-06-22T04:51:31.247Z,17.56
2018-06-22T04:53:59.606Z,17.37
2018-06-22T04:56:28.385Z,17.96
2018-06-22T04:58:57.096Z,17.80
2018-06-22T05:01:25.317Z,18.19
2018-06-22T05:03:53.425Z,19.07
2018-06-22T05:06:22.200Z,18.56
2018-06-22T05:08:50.427Z,18.48
2018-06-22T05:11:18.580Z,18.87
2018-06-22T05:13:47.377Z,18.94
2018-06-22T05:16:15.607Z,18.95
2018-06-22T05:18:44.008Z,18.96
2018-06-22T05:21:12.089Z,18.87
2018-06-22T05:23:40.790Z,19.37
2018-06-22T05:26:08.931Z,19.32
2018-06-22T05:28:37.132Z,19.72
2018-06-22T05:31:05.248Z,18.06
2018-06-22T05:33:33.416Z,19.39
2018-06-22T05:36:01.639Z,19.51
2018-06-22T05:38:30.064Z,19.44
2018-06-22T05:40:58.185Z,19.47
2018-06-22T05:43:26.495Z,20.07
2018-06-22T05:45:54.636Z,20.41
2018-06-22T05:48:22.924Z,20.84
2018-06-22T05:50:51.246Z,21.39
2018-06-22T05:53:19.242Z,20.65
2018-06-22T05:55:47.485Z,20.15
2018-06-22T05:58:15.672Z,20.41
2018-06-22T06:00:43.954Z,21.03
2018-06-22T06:03:12.202Z,20.88
2018-06-22T06:05:41.097Z,20.11
2018-06-22T06:08:09.243Z,20.16
2018-06-22T06:10:37.403Z,20.35
2018-06-22T06:13:06.521Z,20.03
2018-06-22T06:15:35.008Z,19.84
2018-06-22T06:18:03.160Z,20.15
2018-06-22T06:20:31.395Z,20.60
2018-06-22T06:22:59.492Z,21.08
2018-06-22T06:25:28.241Z,21.02
2018-06-22T06:27:56.336Z,20.29
2018-06-22T06:30:24.605Z,19.87
2018-06-22T06:32:52.785Z,19.01
2018-06-22T06:35:21.074Z,19.26
2018-06-22T06:37:49.936Z,19.73
2018-06-22T06:40:18.117Z,20.31
2018-06-22T06:42:46.856Z,19.23
2018-06-22T06:45:15.032Z,19.02
2018-06-22T06:47:43.727Z,18.29
2018-06-22T06:50:11.890Z,16.24
2018-06-22T06:52:40.094Z,16.07
2018-06-22T06:55:08.274Z,15.13
2018-06-22T06:57:36.455Z,15.11
2018-06-22T07:00:04.656Z,14.53
2018-06-22T07:02:32.781Z,14.78
2018-06-22T07:05:00.826Z,15.04
2018-06-22T07:07:28.898Z,14.97
2018-06-22T07:09:57.072Z,14.84
2018-06-22T07:12:25.213Z,14.78
2018-06-22T07:14:53.368Z,14.87
2018-06-22T07:17:21.522Z,14.78
2018-06-22T07:19:50.411Z,14.85
2018-06-22T07:22:18.491Z,14.18
2018-06-22T07:24:46.655Z,14.57
2018-06-22T07:27:15.243Z,14.44
2018-06-22T07:29:43.321Z,14.73
2018-06-22T07:32:11.681Z,14.47
2018-06-22T07:34:39.763Z,14.29
2018-06-22T07:37:07.972Z,13.70
2018-06-22T07:39:36.276Z,14.18
2018-06-22T07:42:04.400Z,14.24
2018-06-22T07:44:32.560Z,14.56
2018-06-22T07:47:00.637Z,14.65
2018-06-22T07:49:28.716Z,14.77
2018-06-22T07:51:56.893Z,14.95
2018-06-22T07:54:24.996Z,14.81
2018-06-22T07:56:53.413Z,14.53
2018-06-22T07:59:21.502Z,14.48
2018-06-22T08:01:49.616Z,14.85
2018-06-22T08:04:17.832Z,14.94
2018-06-22T08:06:46.967Z,14.90
2018-06-22T08:09:15.225Z,15.26
2018-06-22T08:11:43.330Z,15.27
2018-06-22T08:14:11.384Z,15.53
2018-06-22T08:16:39.503Z,15.71
2018-06-22T08:19:07.664Z,15.55
2018-06-22T08:21:36.941Z,15.29
2018-06-22T08:24:05.092Z,15.71
2018-06-22T08:26:33.341Z,15.60
2018-06-22T08:29:01.407Z,15.88
2018-06-22T08:31:29.768Z,15.48
2018-06-22T08:33:57.836Z,15.59
2018-06-22T08:36:26.001Z,15.59
2018-06-22T08:38:54.159Z,15.70
2018-06-22T08:41:22.246Z,16.24
2018-06-22T08:43:51.244Z,16.55
2018-06-22T08:46:20.195Z,16.58
2018-06-22T08:48:48.610Z,15.93
2018-06-22T08:51:16.785Z,15.54
2018-06-22T08:53:45.062Z,15.98
2018-06-22T08:56:13.139Z,16.15
2018-06-22T08:58:41.215Z,15.63
2018-06-22T09:01:09.285Z,15.83
2018-06-22T09:03:37.520Z,15.65
2018-06-22T09:06:05.739Z,15.62
2018-06-22T09:08:33.984Z,15.50
2018-06-22T09:11:02.324Z,15.63
2018-06-22T09:13:30.447Z,15.79
2018-06-22T09:15:58.546Z,16.05
2018-06-22T09:18:26.635Z,16.00
2018-06-22T09:20:54.700Z,15.78
2018-06-22T09:23:22.991Z,15.41
2018-06-22T09:25:51.064Z,15.63
2018-06-22T09:28:20.112Z,15.86
2018-06-22T09:30:48.184Z,15.94
2018-06-22T09:33:16.429Z,16.18
2018-06-22T09:35:44.503Z,16.28
2018-06-22T09:38:12.590Z,16.62
2018-06-22T09:40:41.343Z,16.70
2018-06-22T09:43:09.561Z,16.73
2018-06-22T09:45:37.799Z,16.71
2018-06-22T09:48:06.072Z,16.83
2018-06-22T09:50:34.214Z,17.09
2018-06-22T09:53:02.343Z,16.33
2018-06-22T09:55:30.388Z,16.38
2018-06-22T09:57:58.464Z,16.64
2018-06-22T10:00:26.549Z,16.18
2018-06-22T10:02:54.604Z,16.73
2018-06-22T10:05:22.767Z,17.21
2018-06-22T10:07:52.356Z,17.25
2018-06-22T10:10:20.430Z,16.75
2018-06-22T10:12:49.183Z,16.68
2018-06-22T10:15:17.326Z,16.49
2018-06-22T10:17:45.435Z,16.33
2018-06-22T10:20:13.949Z,16.48
2018-06-22T10:22:42.097Z,16.85
2018-06-22T10:25:10.194Z,17.19
2018-06-22T10:27:38.679Z,17.02
2018-06-22T10:30:06.804Z,17.20
2018-06-22T10:32:34.891Z,17.57
2018-06-22T10:35:03.016Z,17.11
2018-06-22T10:37:31.084Z,17.03
2018-06-22T10:39:59.196Z,16.77
2018-06-22T10:42:27.292Z,16.38
2018-06-22T10:44:55.383Z,16.67
2018-06-22T10:47:24.657Z,17.03
2018-06-22T10:49:53.648Z,17.13
2018-06-22T10:52:21.709Z,17.26
2018-06-22T10:54:49.799Z,16.52
2018-06-22T10:57:17.883Z,16.53
2018-06-22T10:59:46.038Z,16.58
2018-06-22T11:02:14.360Z,16.84
2018-06-22T11:04:42.440Z,17.09
2018-06-22T11:07:10.516Z,16.43
2018-06-22T11:09:38.660Z,16.06
2018-06-22T11:12:06.772Z,16.36
2018-06-22T11:14:35.124Z,16.23
2018-06-22T11:17:03.405Z,16.76
2018-06-22T11:19:31.396Z,17.00
2018-06-22T11:21:59.760Z,17.09
2018-06-22T11:24:28.374Z,17.11
2018-06-22T11:26:56.416Z,17.29
2018-06-22T11:29:25.526Z,17.37
2018-06-22T11:31:53.579Z,17.61
2018-06-22T11:34:21.755Z,17.83
2018-06-22T11:36:49.838Z,17.76
2018-06-22T11:39:17.923Z,17.40
2018-06-22T11:41:46.003Z,17.47
2018-06-22T11:44:14.091Z,17.57
2018-06-22T11:46:42.803Z,17.98
2018-06-22T11:49:10.902Z,17.91
2018-06-22T11:51:39.001Z,18.13
2018-06-22T11:54:07.101Z,18.23
2018-06-22T11:56:35.192Z,18.63
2018-06-22T11:59:03.562Z,18.66
2018-06-22T12:01:31.600Z,17.84
2018-06-22T12:03:59.687Z,17.78
2018-06-22T12:06:27.769Z,17.54
2018-06-22T12:08:55.845Z,17.02
2018-06-22T12:11:23.941Z,17.65
2018-06-22T12:13:52.144Z,18.18
2018-06-22T12:16:20.255Z,18.03
2018-06-22T12:18:48.340Z,17.44
2018-06-22T12:21:16.413Z,17.46
2018-06-22T12:23:44.487Z,17.73
2018-06-22T12:26:13.063Z,17.90
2018-06-22T12:28:41.251Z,18.19
2018-06-22T12:31:09.448Z,18.43
2018-06-22T12:33:37.530Z,18.86
2018-06-22T12:36:06.324Z,18.52
2018-06-22T12:38:34.535Z,17.94
2018-06-22T12:41:02.653Z,18.03
2018-06-22T12:43:30.824Z,18.15
2018-06-22T12:45:59.205Z,17.93
2018-06-22T12:48:27.287Z,17.67
2018-06-22T12:50:55.384Z,17.64
2018-06-22T12:53:23.452Z,18.13
2018-06-22T12:55:51.540Z,18.30
2018-06-22T12:58:19.603Z,17.78
2018-06-22T13:00:48.370Z,17.71
2018-06-22T13:03:16.564Z,17.91
2018-06-22T13:05:44.833Z,17.93
2018-06-22T13:08:13.015Z,18.01
2018-06-22T13:10:41.108Z,18.23
2018-06-22T13:13:09.235Z,18.47
2018-06-22T13:15:37.432Z,17.93
2018-06-22T13:18:05.626Z,18.19
2018-06-22T13:20:33.708Z,18.32
2018-06-22T13:23:01.876Z,18.80
2018-06-22T13:25:30.742Z,19.22
2018-06-22T13:27:59.349Z,19.27
2018-06-22T13:30:27.455Z,19.31
2018-06-22T13:32:55.554Z,19.43
2018-06-22T13:35:23.655Z,19.11
2018-06-22T13:37:52.158Z,18.67
2018-06-22T13:40:20.492Z,18.13
2018-06-22T13:42:49.436Z,18.51
2018-06-22T13:45:18.036Z,18.31
2018-06-22T13:47:46.363Z,18.34
2018-06-22T13:50:14.478Z,18.26
2018-06-22T13:52:42.610Z,18.26
2018-06-22T13:55:10.889Z,17.90
2018-06-22T13:57:39.969Z,17.78
2018-06-22T14:00:08.176Z,17.97
2018-06-22T14:02:36.256Z,17.95
2018-06-22T14:05:09.600Z,18.10
2018-06-22T14:07:37.727Z,18.11
2018-06-22T14:10:06.465Z,18.36
2018-06-22T14:12:34.561Z,18.45
2018-06-22T14:15:02.888Z,18.70
2018-06-22T14:17:31.423Z,18.88
2018-06-22T14:19:59.628Z,18.94
2018-06-22T14:22:27.923Z,19.25
2018-06-22T14:24:56.208Z,18.79
2018-06-22T14:27:24.564Z,19.08
2018-06-22T14:29:52.631Z,18.83
2018-06-22T14:32:22.282Z,18.72
2018-06-22T14:34:50.420Z,18.81
2018-06-22T14:37:19.370Z,18.20
2018-06-22T14:39:47.460Z,18.08
2018-06-22T14:42:15.708Z,18.48
2018-06-22T14:44:43.905Z,18.80
2018-06-22T14:47:12.040Z,19.28
2018-06-22T14:49:40.057Z,19.13
2018-06-22T14:52:08.712Z,18.78
2018-06-22T14:54:42.085Z,18.34
2018-06-22T14:57:15.470Z,18.37
2018-06-22T14:59:48.984Z,18.58
2018-06-22T15:02:22.527Z,18.69
2018-06-22T15:04:56.004Z,18.17
2018-06-22T15:07:29.373Z,17.98
2018-06-22T15:09:57.493Z,18.16
2018-06-22T15:12:25.596Z,17.78
2018-06-22T15:14:54.024Z,17.99
2018-06-22T15:17:22.237Z,17.96
2018-06-22T15:19:50.479Z,17.66
2018-06-22T15:22:18.645Z,17.52
2018-06-22T15:24:46.753Z,17.53
2018-06-22T15:27:14.932Z,17.42
2018-06-22T15:29:43.072Z,17.76
2018-06-22T15:32:11.757Z,18.04
2018-06-22T15:34:45.300Z,18.05
2018-06-22T15:37:18.701Z,18.29
2018-06-22T15:39:52.236Z,18.37
2018-06-22T15:42:25.840Z,18.42
2018-06-22T15:44:59.267Z,18.75
2018-06-22T15:47:32.646Z,18.60
2018-06-22T15:50:06.441Z,17.94
2018-06-22T15:52:39.916Z,18.18
2018-06-22T15:55:11.908Z,18.22
2018-06-22T15:57:40.032Z,18.11
2018-06-22T16:00:09.856Z,18.24
2018-06-22T16:02:43.244Z,18.29
2018-06-22T16:05:11.639Z,18.20
2018-06-22T16:07:39.913Z,18.12
2018-06-22T16:10:10.239Z,17.80
2018-06-22T16:12:39.952Z,17.74
2018-06-22T16:15:14.327Z,17.52
2018-06-22T16:17:47.906Z,17.37
2018-06-22T16:20:21.463Z,17.14
2018-06-22T16:22:55.182Z,17.16
2018-06-22T16:25:28.659Z,17.11
2018-06-22T16:28:04.608Z,17.06
2018-06-22T16:30:32.834Z,16.97
2018-06-22T16:33:00.940Z,17.14
2018-06-22T16:35:30.081Z,17.09
2018-06-22T16:37:58.364Z,17.15
2018-06-22T16:40:27.449Z,17.21
2018-06-22T16:42:55.617Z,17.32
2018-06-22T16:45:23.870Z,17.46
2018-06-22T16:47:52.068Z,17.53
2018-06-22T16:50:20.607Z,17.46
2018-06-22T16:52:48.871Z,17.50
2018-06-22T16:55:17.079Z,17.25
2018-06-22T16:57:45.312Z,17.26
2018-06-22T17:00:13.691Z,17.15
2018-06-22T17:02:42.481Z,17.13
2018-06-22T17:05:10.666Z,17.32
2018-06-22T17:07:44.248Z,17.22
2018-06-22T17:10:18.183Z,17.09
2018-06-22T17:12:51.601Z,17.03
2018-06-22T17:15:25.107Z,17.13
2018-06-22T17:17:58.536Z,17.01
2018-06-22T17:20:26.645Z,16.99
2018-06-22T17:22:54.703Z,16.90
2018-06-22T17:25:22.980Z,17.19
2018-06-22T17:27:51.867Z,18.05
2018-06-22T17:30:19.982Z,18.87
2018-06-22T17:32:48.829Z,18.26
2018-06-22T17:35:17.085Z,17.93
2018-06-22T17:37:45.236Z,18.12
2018-06-22T17:40:13.411Z,18.80
2018-06-22T17:42:41.503Z,19.04
2018-06-22T17:45:09.778Z,18.50
2018-06-22T17:47:39.184Z,19.09
2018-06-22T17:50:13.048Z,18.22
2018-06-22T17:52:41.814Z,18.08
2018-06-22T17:55:10.041Z,17.62
2018-06-22T17:57:38.117Z,17.29
2018-06-22T18:00:11.660Z,17.10
2018-06-22T18:02:45.089Z,17.15
2018-06-22T18:05:18.628Z,17.09
2018-06-22T18:07:48.352Z,16.94
2018-06-22T18:10:21.983Z,16.93
2018-06-22T18:12:55.770Z,17.02
2018-06-22T18:15:23.799Z,16.82
2018-06-22T18:17:51.948Z,16.73
2018-06-22T18:20:20.250Z,16.61
2018-06-22T18:22:49.084Z,16.54
2018-06-22T18:25:17.113Z,16.42
2018-06-22T18:27:45.235Z,16.42
2018-06-22T18:30:15.500Z,16.26
2018-06-22T18:32:43.600Z,16.19
2018-06-22T18:35:13.838Z,16.03
2018-06-22T18:37:42.156Z,16.01
2018-06-22T18:40:11.015Z,15.94
2018-06-22T18:42:40.280Z,15.83
2018-06-22T18:45:10.211Z,15.88
2018-06-22T18:47:39.444Z,15.73
2018-06-22T18:50:07.711Z,15.68
2018-06-22T18:52:41.186Z,15.67
2018-06-22T18:55:15.048Z,15.62
2018-06-22T18:57:48.411Z,15.58
2018-06-22T19:00:21.935Z,15.50
2018-06-22T19:02:55.808Z,15.43
2018-06-22T19:05:23.920Z,15.33
2018-06-22T19:07:52.147Z,15.29
2018-06-22T19:10:20.252Z,15.23
2018-06-22T19:12:48.311Z,15.11
2018-06-22T19:15:17.375Z,15.05
2018-06-22T19:17:45.563Z,15.02
2018-06-22T19:20:13.671Z,14.99
2018-06-22T19:22:41.776Z,15.00
2018-06-22T19:25:10.772Z,14.84
2018-06-22T19:27:39.889Z,14.82
2018-06-22T19:30:08.675Z,14.66
2018-06-22T19:32:36.780Z,14.68
2018-06-22T19:35:11.100Z,14.53
2018-06-22T19:37:39.385Z,14.51
2018-06-22T19:40:07.520Z,14.45
2018-06-22T19:42:35.620Z,14.40
2018-06-22T19:45:09.103Z,14.11
2018-06-22T19:47:42.524Z,14.05
2018-06-22T20:09:41.536Z,14.04
2018-06-22T20:12:09.780Z,13.29
2018-06-22T20:14:37.868Z,13.15
2018-06-22T20:17:06.845Z,12.98
2018-06-22T20:19:34.952Z,12.80
2018-06-22T20:22:03.053Z,12.69
2018-06-22T20:24:36.424Z,12.66
2018-06-22T20:27:04.512Z,12.62
2018-06-22T20:29:32.598Z,12.61
2018-06-22T20:32:00.675Z,12.61
2018-06-22T20:34:35.214Z,12.63
2018-06-22T20:37:08.528Z,12.74
2018-06-22T20:39:42.277Z,12.65
2018-06-22T20:42:15.880Z,12.57
2018-06-22T20:44:49.378Z,12.43
2018-06-22T20:47:22.716Z,12.32
2018-06-22T20:49:56.111Z,12.19
2018-06-22T20:52:24.211Z,12.16
2018-06-22T20:54:52.535Z,12.11
2018-06-22T20:57:21.475Z,12.05
2018-06-22T20:59:49.711Z,11.96
2018-06-22T21:02:18.279Z,11.84
2018-06-22T21:04:46.628Z,11.77
2018-06-22T21:07:14.767Z,11.76
2018-06-22T21:09:42.948Z,11.83
2018-06-22T21:12:11.063Z,11.83
2018-06-22T21:14:39.360Z,11.83
2018-06-22T21:17:07.492Z,11.78
2018-06-22T21:19:35.625Z,11.73
2018-06-22T21:22:10.832Z,11.60
2018-06-22T21:24:40.283Z,11.51
2018-06-22T21:27:13.656Z,11.49
2018-06-22T21:29:47.296Z,11.42
2018-06-22T21:32:21.061Z,11.32
2018-06-22T21:34:55.832Z,11.24
2018-06-22T21:37:29.511Z,11.21
2018-06-22T21:39:57.731Z,11.18
2018-06-22T21:42:25.924Z,11.13
2018-06-22T21:44:54.096Z,11.17
2018-06-22T21:47:22.435Z,11.16
2018-06-22T21:49:51.539Z,11.10
2018-06-22T21:52:19.644Z,11.07
2018-06-22T21:54:48.252Z,10.99
2018-06-22T21:57:16.608Z,10.85
2018-06-22T22:02:38.646Z,10.90
2018-06-22T22:05:06.740Z,10.80
2018-06-22T22:07:34.918Z,10.83
2018-06-22T22:10:04.086Z,10.87
2018-06-22T22:12:33.483Z,10.87
2018-06-22T22:15:01.578Z,10.84
2018-06-22T22:17:31.702Z,10.89
2018-06-22T22:19:59.792Z,10.77
2018-06-22T22:22:27.984Z,10.92
2018-06-22T22:24:56.203Z,10.84
2018-06-22T22:27:24.344Z,10.88
2018-06-22T22:29:53.448Z,10.83
2018-06-22T22:32:21.552Z,10.82
2018-06-22T22:34:49.659Z,10.64
2018-06-22T22:37:18.127Z,10.41
2018-06-22T22:39:46.436Z,10.35
2018-06-22T22:42:14.528Z,10.37
2018-06-22T22:44:42.635Z,10.25
2018-06-22T22:47:11.749Z,10.19
2018-06-22T22:49:40.409Z,10.19
2018-06-22T22:52:08.505Z,10.13
2018-06-22T22:54:36.696Z,10.11
2018-06-22T22:57:06.163Z,10.07
2018-06-22T22:59:34.298Z,10.00
2018-06-22T23:02:02.441Z,9.92
2018-06-22T23:04:30.672Z,9.89
2018-06-22T23:06:59.111Z,9.86
2018-06-22T23:09:27.367Z,9.81
2018-06-22T23:11:55.548Z,9.86
2018-06-22T23:14:23.700Z,9.88
2018-06-22T23:16:51.865Z,9.81
2018-06-22T23:19:19.958Z,9.84
2018-06-22T23:21:48.284Z,9.88
2018-06-22T23:24:16.597Z,9.81
2018-06-22T23:26:44.862Z,9.72
2018-06-22T23:29:13.151Z,9.66
2018-06-22T23:31:41.581Z,9.71
2018-06-22T23:34:09.897Z,9.59
2018-06-22T23:36:38.243Z,9.63
2018-06-22T23:39:08.381Z,9.63
2018-06-22T23:41:36.523Z,9.46
2018-06-22T23:44:04.655Z,9.49
2018-06-22T23:46:32.993Z,9.52
2018-06-22T23:49:01.058Z,9.54
2018-06-22T23:51:29.137Z,9.44
2018-06-22T23:53:57.295Z,9.45
2018-06-22T23:56:25.456Z,9.35
2018-06-22T23:58:53.532Z,9.33
